Bluffton, SC

6:21 AM EDT en Septiembre 23, 2014 (GMT -0400)
Bluffton Park | Change Station
CLOSE
Current Station
Estación meteorológica personal
Location: Bluffton, SC
Altura: 30 ft
Estaciones meteorológicas cercanas

Alt 30 ft 32.24 °N, 80.87 °W | Updated 11 minutes ago

Nublado
Nublado
66.4 ° F
Sensación térmica 66.4 ° F
N
0.0
Viento Variable Viento desde SSE

Hoy
Alta -- | Baja -- ° F
--% Posibilidad de precipitaciones
Ayer
Alta -- | Baja -- ° F
Precip. -- pul
7:12 AM 7:18 PM
Creciente menguante, 1% visible
Presión 30.10 pul
Visibilidad 10.0 Millas
Nubes Nubes dispersas 1000 ft
Muy nublado 1500 ft
Nublado 2000 ft
Punto de rocío 63 ° F
Humedad 89%
Precipitaciones 0.00 pul
Espesor de la nieve No disponible.
UV 0 de una escala de 12
Polen 8.30 de una escala de 12
Calidad del aire No disponible.
Flu Activity No disponible.
METAR KHXD 230935Z AUTO 32009G14KT 10SM SCT010 BKN015 OVC020 21/19 A3010 RMK AO2 P0000

More Conditions Fewer Conditions

Presión 30.10 pul
Visibilidad 10.0 Millas
Nubes Nubes dispersas 1000 ft
Muy nublado 1500 ft
Nublado 2000 ft
Punto de rocío 63 ° F
Humedad 89%
Precipitaciones 0.00 pul
Espesor de la nieve No disponible.
UV 0 de una escala de 12
Polen 8.30 de una escala de 12
Calidad del aire No disponible.
Flu Activity No disponible.
METAR KHXD 230935Z AUTO 32009G14KT 10SM SCT010 BKN015 OVC020 21/19 A3010 RMK AO2 P0000

More Conditions Fewer Conditions

10-Day Weather Forecast

Almanac

Astronomía

Sep. 23, 2014 Salida Puesta
Hora real 7:12 AM EDT 7:18 PM EDT
Crepúsculo civil 6:47 AM EDT 7:43 PM EDT
Crepúsculo náutico 6:19 AM EDT 8:11 PM EDT
Crepúsculo astronómico 5:50 AM EDT 8:40 PM EDT
Luna 6:35 AM EDT 6:57 PM EDT
Horas de luz 12h 55m
Horas de luz
12h 06m
Tomorrow will be 1m 58s shorter.
Creciente menguante, 1% of the Moon is Illuminated
Hoy
Creciente menguante
Sep 24
Nueva
Oct 1
Cuarto creciente
Oct 8
Luna llena
Oct 15
Cuarto menguante

Extremos de hoy

Máximos del estado Bajos del estado

Community

WunderPhotos

Upload Photos

1,755,645 ¡fotos cargadas!

Nearby

Grosos de nieve

Estación Profundido Altura
No tenemos constancia de nieve nueva.

Actividad de terremotos

Ciudad Distance Mag. Tiempo y dato
, 95 Millas 2.6 4:00 PM EDT
2014-09-19
Magnitud mínima muestra es 2,5.

Temperaturas de aguas costeras

Lugar Temperatura
Sin partes meteorológicos de las estaciones

Estaciones meteorológicas cercanas